createdAt,value
2022-11-23T00:03:05.708Z,65159.63
2022-11-23T00:08:10.976Z,65147.41
2022-11-23T00:13:14.729Z,65219.41
2022-11-23T00:18:18.600Z,65125.19
2022-11-23T00:23:23.994Z,65168.78
2022-11-23T00:28:28.140Z,65157.94
2022-11-23T00:33:31.904Z,65158.56
2022-11-23T00:38:39.141Z,65184.63
2022-11-23T00:43:44.497Z,65169.97
2022-11-23T00:48:50.045Z,65165.06
2022-11-23T00:53:55.482Z,65161.22
2022-11-23T00:59:02.385Z,65160.69
2022-11-23T01:04:08.421Z,65193.16
2022-11-23T01:09:14.801Z,65235.78
2022-11-23T01:14:18.817Z,65141.25
2022-11-23T01:19:22.649Z,65163.78
2022-11-23T01:24:27.960Z,65099.28
2022-11-23T01:29:32.222Z,65136.88
2022-11-23T01:34:38.303Z,65144.34
2022-11-23T01:39:43.399Z,65120.84
2022-11-23T01:44:47.269Z,65086.41
2022-11-23T01:49:53.914Z,65134.56
2022-11-23T01:55:03.885Z,65172.59
2022-11-23T02:00:13.697Z,65174.53
2022-11-23T02:05:20.090Z,65199.19
2022-11-23T02:10:25.274Z,65193.34
2022-11-23T02:15:29.401Z,65144.97
2022-11-23T02:20:33.698Z,65183.97
2022-11-23T02:25:45.711Z,65126.78
2022-11-23T02:30:53.872Z,65107.13
2022-11-23T02:36:02.388Z,65074.81
2022-11-23T02:41:06.935Z,65084.19
2022-11-23T02:46:13.419Z,65079.09
2022-11-23T02:51:17.185Z,65123.19
2022-11-23T02:56:20.928Z,65110.22
2022-11-23T03:01:26.611Z,65094.59
2022-11-23T03:06:30.691Z,65142.75
2022-11-23T03:11:35.338Z,65107.13
2022-11-23T03:16:41.143Z,65081.00
2022-11-23T03:21:45.294Z,65127.97
2022-11-23T03:26:49.438Z,65114.91
2022-11-23T03:31:58.142Z,65077.38
2022-11-23T03:37:01.926Z,65150.81
2022-11-23T03:42:06.170Z,65163.25
2022-11-23T03:47:13.200Z,65203.78
2022-11-23T03:52:16.978Z,65127.22
2022-11-23T03:57:21.650Z,65099.59
2022-11-23T04:02:27.282Z,65127.75
2022-11-23T04:07:41.749Z,65158.03
2022-11-23T04:12:45.849Z,65081.53
2022-11-23T04:17:53.064Z,65105.34
2022-11-23T04:22:56.915Z,65148.16
2022-11-23T04:28:02.541Z,65165.16
2022-11-23T04:33:08.295Z,65138.38
2022-11-23T04:38:12.280Z,65138.91
2022-11-23T04:43:16.177Z,65183.13
2022-11-23T04:48:21.926Z,65112.44
2022-11-23T04:53:26.168Z,65161.03
2022-11-23T04:58:34.629Z,65109.28
2022-11-23T05:03:40.389Z,65100.13
2022-11-23T05:08:46.073Z,65089.50
2022-11-23T05:14:15.649Z,65103.94
2022-11-23T05:19:20.920Z,65111.69
2022-11-23T05:24:25.527Z,65162.31
2022-11-23T05:29:45.160Z,65119.25
2022-11-23T05:34:51.132Z,65119.78
2022-11-23T05:39:56.132Z,65158.78
2022-11-23T05:45:00.869Z,65120.31
2022-11-23T05:50:15.254Z,65109.16
2022-11-23T05:55:22.055Z,65100.00
2022-11-23T06:00:26.027Z,65096.94
2022-11-23T06:05:37.466Z,65123.06
2022-11-23T06:10:41.247Z,65067.06
2022-11-23T06:15:45.144Z,65156.66
2022-11-23T06:20:51.335Z,65177.72
2022-11-23T06:25:55.401Z,65170.69
2022-11-23T06:31:04.658Z,65147.41
2022-11-23T06:36:12.661Z,65127.31
2022-11-23T06:41:22.733Z,65081.00
2022-11-23T06:46:27.387Z,65121.91
2022-11-23T06:51:33.615Z,65096.94
2022-11-23T06:56:37.378Z,65093.31
2022-11-23T07:01:41.255Z,65157.50
2022-11-23T07:06:48.864Z,65111.16
2022-11-23T07:12:04.327Z,65154.22
2022-11-23T07:17:08.482Z,65143.16
2022-11-23T07:22:14.537Z,65137.31
2022-11-23T07:27:18.735Z,65098.41
2022-11-23T07:32:22.919Z,65093.22
2022-11-23T07:37:28.512Z,65166.03
2022-11-23T07:42:36.804Z,65136.25
2022-11-23T07:47:43.506Z,65109.91
2022-11-23T07:52:48.649Z,65175.16
2022-11-23T07:57:56.502Z,65119.38
2022-11-23T08:08:28.162Z,65169.72
2022-11-23T08:13:31.988Z,65245.13
2022-11-23T08:18:36.106Z,65176.75
2022-11-23T08:23:41.283Z,65209.09
2022-11-23T08:28:45.227Z,65158.16
2022-11-23T08:33:49.283Z,65184.19
2022-11-23T08:38:54.610Z,65287.69
2022-11-23T08:43:58.584Z,65214.41
2022-11-23T08:49:02.719Z,65202.81
2022-11-23T08:54:08.029Z,65231.94
2022-11-23T08:59:12.544Z,65136.34
2022-11-23T09:04:20.520Z,65141.78
2022-11-23T09:09:26.110Z,65194.63
2022-11-23T09:14:30.614Z,65140.41
2022-11-23T09:19:34.584Z,65182.63
2022-11-23T09:24:39.834Z,65150.59
2022-11-23T09:29:43.695Z,65250.66
2022-11-23T09:34:47.461Z,65251.00
2022-11-23T09:39:52.576Z,65193.66
2022-11-23T09:45:13.045Z,65245.25
2022-11-23T09:50:23.185Z,65199.59
2022-11-23T09:55:38.867Z,65168.16
2022-11-23T10:00:47.529Z,65217.69
2022-11-23T10:06:08.821Z,65244.41
2022-11-23T10:11:33.936Z,65225.78
2022-11-23T10:16:45.579Z,65227.28
2022-11-23T10:21:56.126Z,65224.50
2022-11-23T10:27:03.776Z,65196.31
2022-11-23T10:32:22.822Z,65190.59
2022-11-23T10:37:26.969Z,65198.56
2022-11-23T10:42:38.424Z,65230.47
2022-11-23T10:47:49.322Z,65178.78
2022-11-23T10:52:55.817Z,65177.09
2022-11-23T10:58:02.218Z,65281.13
2022-11-23T11:03:25.001Z,65193.88
2022-11-23T11:08:32.178Z,65136.69
2022-11-23T11:13:45.137Z,65160.69
2022-11-23T11:18:49.540Z,65214.28
2022-11-23T11:23:55.573Z,65215.03
2022-11-23T11:29:04.207Z,65290.47
2022-11-23T11:34:17.492Z,65303.34
2022-11-23T11:39:27.108Z,65297.41
2022-11-23T11:44:36.087Z,65217.59
2022-11-23T11:49:45.503Z,65246.19
2022-11-23T11:54:54.611Z,65303.88
2022-11-23T12:00:02.000Z,65329.44
2022-11-23T12:05:19.069Z,65299.53
2022-11-23T12:10:29.252Z,65273.97
2022-11-23T12:15:49.419Z,65255.56
2022-11-23T12:21:01.518Z,65222.91
2022-11-23T12:26:20.809Z,65267.69
2022-11-23T12:31:40.763Z,65237.91
2022-11-23T12:37:05.935Z,65246.00
2022-11-23T12:42:18.283Z,65269.81
2022-11-23T12:47:36.297Z,65294.31
2022-11-23T12:52:54.080Z,65371.81
2022-11-23T12:58:05.364Z,65302.81
2022-11-23T13:04:15.153Z,65242.38
2022-11-23T13:09:56.790Z,65268.13
2022-11-23T13:15:18.475Z,65189.31
2022-11-23T13:20:33.316Z,65174.63
2022-11-23T13:25:40.932Z,65178.16
2022-11-23T13:31:13.997Z,65311.13
2022-11-23T13:36:18.500Z,65364.56
2022-11-23T13:42:00.633Z,65319.31
2022-11-23T13:47:19.757Z,65216.00
2022-11-23T13:52:36.380Z,65196.44
2022-11-23T13:57:41.058Z,65185.25
2022-11-23T14:02:44.951Z,65147.63
2022-11-23T14:07:51.036Z,65188.34
2022-11-23T14:12:58.772Z,65170.28
2022-11-23T14:18:41.185Z,65155.81
2022-11-23T14:24:21.683Z,65323.38
2022-11-23T14:29:36.594Z,65187.50
2022-11-23T14:34:53.654Z,65211.00
2022-11-23T14:40:11.771Z,65309.09
2022-11-23T14:45:17.042Z,65248.97
2022-11-23T14:50:25.856Z,65194.72
2022-11-23T14:55:32.862Z,65179.41
2022-11-23T15:00:40.255Z,65288.78
2022-11-23T15:05:47.373Z,65219.19
2022-11-23T15:11:01.736Z,65232.38
2022-11-23T15:16:06.299Z,65200.03
2022-11-23T15:21:25.531Z,65144.75
2022-11-23T15:26:50.152Z,65155.38
2022-11-23T15:32:14.321Z,65147.09
2022-11-23T15:37:18.747Z,65179.94
2022-11-23T15:42:25.785Z,65172.84
2022-11-23T15:47:31.356Z,65143.81
2022-11-23T15:52:36.658Z,65132.53
2022-11-23T15:57:43.009Z,65147.94
2022-11-23T16:02:46.919Z,65120.84
2022-11-23T16:07:53.109Z,65191.22
2022-11-23T16:13:00.333Z,65188.44
2022-11-23T16:18:05.802Z,65203.88
2022-11-23T16:23:20.615Z,65165.06
2022-11-23T16:28:29.766Z,65173.13
2022-11-23T16:33:34.174Z,65197.38
2022-11-23T16:38:38.250Z,65195.16
2022-11-23T16:43:43.414Z,65154.34
2022-11-23T16:48:47.406Z,65211.75
2022-11-23T16:54:12.995Z,65215.47
2022-11-23T16:59:19.164Z,65202.81
2022-11-23T17:04:23.496Z,65171.56
2022-11-23T17:09:27.399Z,65158.56
2022-11-23T17:14:38.180Z,65208.22
2022-11-23T17:19:47.136Z,65206.97
2022-11-23T17:24:52.768Z,65176.84
2022-11-23T17:30:00.741Z,65184.72
2022-11-23T17:35:05.514Z,65294.72
2022-11-23T17:40:14.821Z,65195.78
2022-11-23T17:45:20.155Z,65206.84
2022-11-23T17:50:25.276Z,65232.59
2022-11-23T17:55:29.427Z,65175.59
2022-11-23T18:00:36.366Z,65232.81
2022-11-23T18:05:40.325Z,65175.59
2022-11-23T18:10:44.221Z,65233.44
2022-11-23T18:15:49.408Z,65171.56
2022-11-23T18:20:53.442Z,65202.81
2022-11-23T18:26:01.587Z,65275.78
2022-11-23T18:31:07.253Z,65334.13
2022-11-23T18:36:12.945Z,65408.78
2022-11-23T18:41:18.307Z,65377.97
2022-11-23T18:46:24.251Z,65361.38
2022-11-23T18:51:28.034Z,65348.38
2022-11-23T18:56:32.762Z,65375.09
2022-11-23T19:01:38.263Z,65349.56
2022-11-23T19:06:42.800Z,65357.13
2022-11-23T19:11:47.647Z,65372.56
2022-11-23T19:16:53.038Z,65446.50
2022-11-23T19:21:56.858Z,65400.78
2022-11-23T19:27:00.675Z,65354.44
2022-11-23T19:32:06.816Z,65438.69
2022-11-23T19:37:11.029Z,65469.41
2022-11-23T19:42:14.798Z,65425.72
2022-11-23T19:47:22.920Z,65429.00
2022-11-23T19:52:47.962Z,65455.53
2022-11-23T19:57:52.905Z,65394.19
2022-11-23T20:02:59.452Z,65423.78
2022-11-23T20:08:04.032Z,65495.19
2022-11-23T20:13:07.864Z,65368.63
2022-11-23T20:18:13.270Z,65390.13
2022-11-23T20:23:17.149Z,65441.69
2022-11-23T20:28:21.193Z,65433.91
2022-11-23T20:33:26.381Z,65499.91
2022-11-23T20:38:30.387Z,65489.03
2022-11-23T20:43:34.303Z,65400.25
2022-11-23T20:48:40.721Z,65444.56
2022-11-23T20:53:48.201Z,65439.22
2022-11-23T20:58:55.999Z,65505.22
2022-11-23T21:04:01.604Z,65385.88
2022-11-23T21:09:05.512Z,65371.38
2022-11-23T21:14:17.644Z,65349.66
2022-11-23T21:19:25.439Z,65341.56
2022-11-23T21:24:29.683Z,65350.81
2022-11-23T21:29:34.191Z,65376.28
2022-11-23T21:34:39.370Z,65355.41
2022-11-23T21:39:46.585Z,65325.81
2022-11-23T21:44:53.578Z,65371.59
2022-11-23T21:49:58.804Z,65379.91
2022-11-23T21:55:03.045Z,65419.31
2022-11-23T22:00:08.043Z,65343.69
2022-11-23T22:05:17.420Z,65338.91
2022-11-23T22:10:21.279Z,65325.50
2022-11-23T22:15:25.155Z,65294.41
2022-11-23T22:20:30.419Z,65378.94
2022-11-23T22:25:34.233Z,65448.09
2022-11-23T22:30:38.175Z,65421.47
2022-11-23T22:35:43.576Z,65320.47
2022-11-23T22:40:47.766Z,65360.75
2022-11-23T22:45:51.861Z,65408.56
2022-11-23T22:50:57.957Z,65392.69
2022-11-23T22:56:02.895Z,65410.28
2022-11-23T23:01:08.899Z,65491.38
2022-11-23T23:06:16.280Z,65449.16
2022-11-23T23:11:21.226Z,65437.09
2022-11-23T23:16:25.628Z,65456.81
2022-11-23T23:21:31.140Z,65378.84
2022-11-23T23:26:35.585Z,65417.72
2022-11-23T23:31:39.650Z,65320.47
2022-11-23T23:36:44.910Z,65360.41
2022-11-23T23:41:50.006Z,65366.50
2022-11-23T23:46:53.784Z,65425.91
2022-11-23T23:51:59.160Z,65432.84
2022-11-23T23:57:03.399Z,65433.72
